Flight Track Log - Related Links

Times and Time Zones

All times are in EDT time to prevent confusion due to time zone crossing. See the EJA929 flight status page for this flight to view local times or setup timezone preferences in your user account.

Time Position Orientation Groundspeed Altitude Reporting Facility
EDT Latitude Longitude Course Direction KTS MPH feet Rate Location/Type
Sat 09:04:04 AM 28.4500 -81.3167 53° Northeast 161 185 1,000  Level Orlando TRACON
Sat 09:04:58 AM 28.4833 -81.2667 53° Northeast 246 283 4,100 2,974 Climbing Orlando TRACON
Sat 09:05:59 AM 28.5167 -81.2000 60° Northeast 256 295 6,700 3,025 Climbing Orlando TRACON
Sat 09:06:59 AM 28.5000 -81.1167 103° East 282 325 10,200 2,750 Climbing Orlando TRACON
Sat 09:07:59 AM 28.4667 -81.0333 114° Southeast 337 388 12,200 1,314 Climbing Orlando TRACON
Sat 09:10:29 AM 28.3100 -80.8108 129° Southeast 407 468 14,800 792 Climbing Miami Center
Sat 09:11:31 AM 28.1914 -80.7175 145° Southeast 422 486 15,000 97 Climbing Miami Center
Sat 09:12:33 AM 28.0853 -80.6469 150° Southeast 425 489 15,000  Level Miami Center
Sat 09:13:34 AM 27.9864 -80.5803 149° Southeast 426 490 15,000  Level Miami Center
Sat 09:14:36 AM 27.8778 -80.5081 150° Southeast 427 491 15,000  Level Miami Center
Sat 09:15:38 AM 27.7700 -80.4356 149° Southeast 427 491 15,000 -484 Level Miami Center
Sat 09:16:40 AM 27.6614 -80.3631 149° Southeast 430 495 14,000 -927 Descending Miami Center
Sat 09:17:41 AM 27.5614 -80.2961 149° Southeast 431 496 13,100 -1,171 Descending Miami Center
Sat 09:18:43 AM 27.4569 -80.2267 149° Southeast 420 483 11,600 -1,452 Descending Miami Center
Sat 09:19:45 AM 27.3669 -80.1675 150° Southeast 356 410 10,100 -774 Descending Miami Center
Sat 09:20:47 AM 27.2864 -80.1333 159° South 302 348 10,000 -341 Descending Miami Center
Sat 09:21:48 AM 27.2056 -80.1089 165° South 291 335 9,400 -829 Descending Miami Center
Sat 09:22:50 AM 27.1364 -80.0747 156° South 282 325 8,300 -1,306 Descending Miami Center
Sat 09:23:52 AM 27.0606 -80.0364 156° South 283 326 6,700 -1,561 Descending Miami Center
Sat 09:24:53 AM 26.9881 -80.0006 156° South 275 316 5,100 -1,268 Descending Miami Center
Sat 09:25:55 AM 26.9125 -79.9658 158° South 277 319 4,100 -532 Descending Miami Center
Sat 09:26:57 AM 26.8467 -79.9381 159° South 257 296 4,000 -484 Descending Miami Center
Sat 09:27:59 AM 26.7883 -79.9197 164° South 212 244 3,100 -927 Descending Miami Center
Sat 09:29:00 AM 26.7303 -79.9172 178° South 211 243 2,100 -780 Descending Miami Center
Sat 09:30:02 AM 26.6778 -79.9411 202° Southwest 212 244 1,500 -290 Descending Miami Center
Sat 09:31:04 AM 26.6781 -80.0006 270° West 195 224 1,500 -341 Level Miami Center
Sat 09:32:05 AM 26.6803 -80.0444 273° West 178 205 800 -689 Descending Miami Center
Sat 09:34:00 AM 26.6667 -80.0833 270° West  Level FlightAware Approximate
Sat 09:41:00 AM 26.6832 -80.0956 270° West  Level Estimated

Login

Don't have an account? Register now (free) for customized features, flight alerts, and more!